Flight Track Log - Related Links

Times and Time Zones

All times are in EDT time to prevent confusion due to time zone crossing. See the SKW4664 flight status page for this flight to view local times or setup timezone preferences in your user account.

Time Position Orientation Groundspeed Altitude Reporting Facility
EDT Latitude Longitude Course Direction KTS MPH feet Rate Location/Type
Tue 12:09:58 PM 43.5217 -96.6972 122° Southeast 250 288 4,200  Level Minneapolis Center
Tue 12:11:12 PM 43.5647 -96.6178 53° Northeast 258 297 6,800 2,453 Climbing Minneapolis Center
Tue 12:12:15 PM 43.6231 -96.5222 50° Northeast 267 307 9,800 2,736 Climbing Minneapolis Center
Tue 12:13:00 PM 43.9369 -96.0804 52° Northeast  Level FlightAware Approximate
Tue 12:13:17 PM 43.6872 -96.4206 49° Northeast 284 327 12,500  Level Minneapolis Center
Tue 12:14:00 PM 44.0106 -95.9480 52° Northeast  Level FlightAware Approximate
Tue 12:14:19 PM 43.7425 -96.3306 50° Northeast 302 348 14,400  Level Minneapolis Center
Tue 12:15:21 PM 43.8014 -96.2358 49° Northeast 321 369 16,100 1,548 Climbing Minneapolis Center
Tue 12:16:23 PM 43.8622 -96.1361 50° Northeast 338 389 17,600 1,355 Climbing Minneapolis Center
Tue 12:17:25 PM 43.9253 -96.0331 50° Northeast 352 405 18,900 1,452 Climbing Minneapolis Center
Tue 12:18:27 PM 44.0017 -95.9072 50° Northeast 358 412 20,600 1,452 Climbing Minneapolis Center
Tue 12:19:29 PM 44.0669 -95.7994 50° Northeast 367 422 21,900 1,161 Climbing Minneapolis Center
Tue 12:20:31 PM 44.1231 -95.6783 57° Northeast 376 433 23,000 532 Climbing Minneapolis Center
Tue 12:21:33 PM 44.1744 -95.5425 62° Northeast 392 451 23,000  Level Minneapolis Center
Tue 12:22:35 PM 44.2297 -95.3994 62° Northeast 413 475 23,000  Level Minneapolis Center
Tue 12:23:37 PM 44.2956 -95.2289 62° Northeast 418 481 23,000 -432 Level Minneapolis Center
Tue 12:24:40 PM 44.3503 -95.0861 62° Northeast 418 481 22,100 -1,008 Descending Minneapolis Center
Tue 12:25:42 PM 44.4011 -94.9475 63° Northeast 409 471 20,900 -1,210 Descending Minneapolis Center
Tue 12:26:44 PM 44.4528 -94.8103 62° Northeast 402 463 19,600 -1,548 Descending Minneapolis Center
Tue 12:27:46 PM 44.5119 -94.6931 55° Northeast 381 438 17,700 -1,839 Descending Minneapolis Center
Tue 12:28:48 PM 44.6039 -94.6119 32° Northeast 361 415 15,800 -1,306 Descending Minneapolis Center
Tue 12:29:50 PM 44.6794 -94.5297 38° Northeast 356 410 15,000 -581 Descending Minneapolis Center
Tue 12:30:52 PM 44.6967 -94.3886 80° East 379 436 14,600 -1,597 Descending Minneapolis Center
Tue 12:31:54 PM 44.6947 -94.2114 91° East 374 430 11,700 -1,742 Descending Minneapolis Center
Tue 12:32:56 PM 44.7119 -94.0733 80° East 360 414 11,000 -339 Descending Minneapolis Center
Tue 12:33:58 PM 44.7433 -93.9375 72° East 364 419 11,000  Level Minneapolis Center
Tue 12:35:00 PM 44.7736 -93.8006 73° East 367 422 11,000  Level Minneapolis Center
Tue 12:36:02 PM 44.8039 -93.6631 73° East 369 425 11,000 -48 Level Minneapolis Center
Tue 12:37:04 PM 44.8325 -93.5303 73° East 351 404 10,900 -864 Descending Minneapolis Center
Tue 12:38:07 PM 44.8581 -93.4169 72° East 304 350 9,200 -1,584 Descending Minneapolis Center
Tue 12:39:09 PM 44.8444 -93.2850 98° East 298 343 7,600 -1,645 Descending Minneapolis Center
Tue 12:40:11 PM 44.7717 -93.2742 174° South 274 315 5,800 -1,452 Descending Minneapolis Center
Tue 12:41:13 PM 44.7086 -93.2714 178° South 240 276 4,600 -1,210 Descending Minneapolis Center
Tue 12:42:15 PM 44.7314 -93.2011 65° Northeast 215 247 3,300 -968 Descending Minneapolis Center
Tue 12:43:17 PM 44.7825 -93.2150 349° North 203 234 2,600 -726 Descending Minneapolis Center
Tue 12:44:19 PM 44.8214 -93.2253 349° North 151 174 1,800 -774 Descending Minneapolis Center

Login

Don't have an account? Register now (free) for customized features, flight alerts, and more!